Time;durP1;ratioP1;P1;durP2;ratioP2;P2;SDS_P1;SDS_P2;PMS_P1;PMS_P2;Temp;Humidity;BMP_temperature;BMP_pressure;BME280_temperature;BME280_humidity;BME280_pressure;Samples;Min_cycle;Max_cycle;Signal;HPM_P1;HPM_P2
2022/10/12 03:02:11;;;;;;;1.30;1.20;;;15.10;82.10;;;;;;5342569;23;20529;-78
2022/10/12 03:04:38;;;;;;;1.80;1.70;;;15.00;82.00;;;;;;4975775;28;20453;-78
2022/10/12 03:07:05;;;;;;;1.47;1.47;;;15.00;82.00;;;;;;4975454;28;20494;-79
2022/10/12 03:09:32;;;;;;;1.70;1.60;;;15.00;82.20;;;;;;4975217;28;20463;-79
2022/10/12 03:11:58;;;;;;;1.77;1.67;;;15.00;82.40;;;;;;4974624;28;20474;-78
2022/10/12 03:14:26;;;;;;;2.00;1.90;;;15.00;82.50;;;;;;4974989;28;20876;-78
2022/10/12 03:16:53;;;;;;;1.73;1.63;;;14.90;82.70;;;;;;4976252;28;20929;-78
2022/10/12 03:19:21;;;;;;;1.40;1.30;;;14.90;82.70;;;;;;4975077;28;20462;-78
2022/10/12 03:21:48;;;;;;;1.10;1.10;;;15.00;82.70;;;;;;4974466;28;20993;-79
2022/10/12 03:24:14;;;;;;;1.90;1.80;;;15.00;82.80;;;;;;4974942;28;20520;-78
2022/10/12 03:26:41;;;;;;;1.80;1.70;;;15.10;82.90;;;;;;4974901;28;20481;-79
2022/10/12 03:29:08;;;;;;;1.80;1.70;;;15.10;82.90;;;;;;4974465;28;20858;-78
2022/10/12 03:31:35;;;;;;;1.73;1.63;;;15.10;82.90;;;;;;4974796;28;20552;-78
2022/10/12 03:34:01;;;;;;;1.50;1.50;;;15.10;83.00;;;;;;4974760;28;20501;-79
2022/10/12 03:36:29;;;;;;;1.60;1.50;;;15.10;83.10;;;;;;4974759;28;20974;-79
2022/10/12 03:38:56;;;;;;;1.50;1.50;;;15.10;83.20;;;;;;4974592;28;20941;-78
2022/10/12 03:41:23;;;;;;;1.90;1.80;;;15.20;83.10;;;;;;4974778;28;20474;-78
2022/10/12 03:43:50;;;;;;;1.60;1.50;;;15.20;83.10;;;;;;4974974;28;20473;-79
2022/10/12 03:46:16;;;;;;;1.50;1.40;;;15.20;83.10;;;;;;4974697;28;20454;-78
2022/10/12 03:48:43;;;;;;;1.70;1.60;;;15.20;83.20;;;;;;4976618;28;20457;-79
2022/10/12 03:51:10;;;;;;;1.60;1.50;;;15.20;83.40;;;;;;4978350;28;20847;-78
2022/10/12 03:53:38;;;;;;;1.70;1.60;;;15.10;83.60;;;;;;4978610;28;20465;-78
2022/10/12 03:56:05;;;;;;;1.50;1.50;;;15.20;83.50;;;;;;4978772;28;20463;-78
2022/10/12 03:58:32;;;;;;;2.90;1.40;;;15.10;83.60;;;;;;4978007;28;20767;-78
2022/10/12 04:00:58;;;;;;;1.50;1.40;;;15.00;83.90;;;;;;4978591;28;20481;-78
2022/10/12 04:03:25;;;;;;;1.30;1.30;;;15.00;83.70;;;;;;4978282;28;20445;-78
2022/10/12 04:05:55;;;;;;;1.63;1.53;;;15.10;83.60;;;;;;4978456;28;20453;-79
2022/10/12 04:08:22;;;;;;;1.87;1.47;;;15.10;83.70;;;;;;4978199;28;20485;-79
2022/10/12 04:10:50;;;;;;;1.43;1.33;;;15.10;83.70;;;;;;4978428;28;20465;-79
2022/10/12 04:13:17;;;;;;;2.70;1.53;;;15.10;83.80;;;;;;4978199;28;20540;-79
2022/10/12 04:15:44;;;;;;;1.77;1.67;;;15.10;84.20;;;;;;4978248;28;20457;-79
2022/10/12 04:18:10;;;;;;;2.10;2.00;;;15.10;84.70;;;;;;4977801;28;20953;-79
2022/10/12 04:20:37;;;;;;;2.10;2.00;;;15.10;84.90;;;;;;4978297;28;20450;-79
2022/10/12 04:23:04;;;;;;;2.30;2.20;;;15.20;85.10;;;;;;4978404;28;20454;-79
2022/10/12 04:25:31;;;;;;;2.40;2.30;;;15.20;85.10;;;;;;4978143;28;20446;-79
2022/10/12 04:27:59;;;;;;;2.27;2.17;;;15.00;85.40;;;;;;4979112;28;20478;-78
2022/10/12 04:30:25;;;;;;;2.60;2.50;;;14.80;86.60;;;;;;4978851;28;20453;-78
2022/10/12 04:32:52;;;;;;;2.60;2.50;;;14.80;86.60;;;;;;4978962;28;20481;-79
2022/10/12 04:35:19;;;;;;;2.80;2.70;;;14.70;87.20;;;;;;4978353;28;20450;-79
2022/10/12 04:37:45;;;;;;;5.27;3.30;;;14.70;87.50;;;;;;4978238;28;20457;-79
2022/10/12 04:40:12;;;;;;;7.57;3.43;;;14.70;87.50;;;;;;4977961;28;20446;-79
2022/10/12 04:42:39;;;;;;;3.03;2.83;;;14.50;88.20;;;;;;4979012;28;20465;-79
2022/10/12 04:45:08;;;;;;;3.30;3.10;;;14.60;88.50;;;;;;4979795;28;20446;-79
2022/10/12 04:47:35;;;;;;;2.90;2.80;;;14.70;88.30;;;;;;4978275;28;21023;-79
2022/10/12 04:50:02;;;;;;;2.97;2.87;;;14.80;88.00;;;;;;4978622;28;20482;-79
2022/10/12 04:52:28;;;;;;;3.10;2.90;;;14.80;88.00;;;;;;4980140;28;20980;-79
2022/10/12 04:54:55;;;;;;;2.53;2.43;;;14.90;87.70;;;;;;4981323;28;20450;-79
2022/10/12 04:57:22;;;;;;;2.80;2.70;;;14.90;87.80;;;;;;4980982;28;20505;-79
2022/10/12 04:59:48;;;;;;;3.00;2.80;;;15.00;87.70;;;;;;4979301;28;20462;-79
2022/10/12 05:02:17;;;;;;;3.20;3.10;;;14.90;87.10;;;;;;4981896;28;20478;-79
2022/10/12 05:04:43;;;;;;;2.50;2.40;;;14.70;88.60;;;;;;4988116;28;20461;-79
2022/10/12 05:07:10;;;;;;;5.47;3.43;;;14.90;87.90;;;;;;4982660;28;20486;-78
2022/10/12 05:09:37;;;;;;;2.60;2.50;;;15.00;87.60;;;;;;4980241;28;20446;-79
2022/10/12 05:12:04;;;;;;;2.90;2.80;;;14.90;87.60;;;;;;4983232;28;20886;-78
2022/10/12 05:14:30;;;;;;;2.77;2.67;;;15.00;87.60;;;;;;4980022;28;20446;-79
2022/10/12 05:16:57;;;;;;;2.70;2.60;;;15.00;87.70;;;;;;4983034;28;20946;-79
2022/10/12 05:19:25;;;;;;;2.90;2.80;;;15.10;87.40;;;;;;4989009;28;20520;-79
2022/10/12 05:21:53;;;;;;;2.37;2.27;;;15.10;87.20;;;;;;4977592;28;20887;-79
2022/10/12 05:24:20;;;;;;;3.10;2.90;;;15.20;87.00;;;;;;4977753;28;20462;-79
2022/10/12 05:26:46;;;;;;;2.60;2.50;;;15.20;86.80;;;;;;4978240;28;20541;-79
2022/10/12 05:29:13;;;;;;;2.50;2.40;;;15.10;87.40;;;;;;4979479;28;20871;-79
2022/10/12 05:31:40;;;;;;;2.60;2.50;;;15.10;87.30;;;;;;4980107;28;20462;-79
2022/10/12 05:34:07;;;;;;;2.43;2.33;;;15.10;87.20;;;;;;4981021;28;20509;-80
2022/10/12 05:36:35;;;;;;;2.43;2.33;;;15.00;87.40;;;;;;4981486;28;20446;-80
2022/10/12 05:39:01;;;;;;;2.90;2.80;;;15.10;87.20;;;;;;4978599;28;20446;-79
2022/10/12 05:41:28;;;;;;;2.40;2.23;;;15.20;87.10;;;;;;4976830;28;20598;-79
2022/10/12 05:43:55;;;;;;;2.50;2.40;;;15.20;87.10;;;;;;4976881;28;20446;-79
2022/10/12 05:46:22;;;;;;;2.20;2.10;;;15.20;86.90;;;;;;4976426;28;20814;-79
2022/10/12 05:48:48;;;;;;;2.20;2.10;;;15.10;87.10;;;;;;4977544;28;20493;-79
2022/10/12 05:51:15;;;;;;;2.50;2.40;;;15.10;86.80;;;;;;4977739;28;20474;-79
2022/10/12 05:53:43;;;;;;;2.63;2.53;;;14.90;87.60;;;;;;4977707;28;20457;-79
2022/10/12 05:56:10;;;;;;;2.70;2.60;;;14.60;88.20;;;;;;4977517;28;20938;-79
2022/10/12 05:58:37;;;;;;;2.60;2.50;;;14.40;90.10;;;;;;4977855;28;20465;-79
2022/10/12 06:01:07;;;;;;;2.73;2.63;;;14.50;89.10;;;;;;4979420;28;21011;-79
2022/10/12 06:03:34;;;;;;;2.30;2.20;;;14.70;89.00;;;;;;4980075;28;20458;-79
2022/10/12 06:06:01;;;;;;;3.00;2.90;;;14.80;88.40;;;;;;4978810;28;20969;-79
2022/10/12 06:08:29;;;;;;;2.70;2.60;;;14.80;88.20;;;;;;4977077;28;20934;-79
2022/10/12 06:10:57;;;;;;;2.33;2.23;;;14.50;88.90;;;;;;4979164;28;20482;-79
2022/10/12 06:13:24;;;;;;;2.67;2.57;;;14.30;90.40;;;;;;4978584;28;20462;-79
2022/10/12 06:15:51;;;;;;;2.47;2.37;;;14.50;89.80;;;;;;4978431;28;20493;-79
2022/10/12 06:18:18;;;;;;;2.50;2.40;;;14.70;89.10;;;;;;4977358;28;20446;-80
2022/10/12 06:20:50;;;;;;;2.87;2.77;;;14.80;88.90;;;;;;4977292;28;20470;-79
2022/10/12 06:23:17;;;;;;;2.40;2.30;;;14.80;88.70;;;;;;4978247;28;20458;-79
2022/10/12 06:25:45;;;;;;;2.50;2.40;;;14.80;88.90;;;;;;4978169;28;20450;-79
2022/10/12 06:28:14;;;;;;;2.50;2.40;;;14.90;88.40;;;;;;4977518;28;20867;-79
2022/10/12 06:30:40;;;;;;;2.30;2.20;;;15.10;87.90;;;;;;4978053;28;20578;-79
2022/10/12 06:33:07;;;;;;;2.17;2.07;;;15.20;87.70;;;;;;4977241;28;20442;-79
2022/10/12 06:35:34;;;;;;;2.23;2.13;;;15.20;87.50;;;;;;4976667;28;20450;-79
2022/10/12 06:38:01;;;;;;;2.60;2.50;;;15.20;87.10;;;;;;4977266;28;20454;-79
2022/10/12 06:40:27;;;;;;;2.50;2.40;;;14.90;87.90;;;;;;4978035;28;20871;-79
2022/10/12 06:42:54;;;;;;;2.30;2.20;;;15.00;88.00;;;;;;4977984;28;20450;-79
2022/10/12 06:45:22;;;;;;;2.70;2.60;;;15.10;87.70;;;;;;4978320;28;20469;-79
2022/10/12 06:47:49;;;;;;;2.27;2.17;;;15.20;87.50;;;;;;4978089;28;20485;-79
2022/10/12 06:50:15;;;;;;;3.00;2.90;;;15.20;87.20;;;;;;4977438;28;20988;-79
2022/10/12 06:52:42;;;;;;;2.47;2.37;;;15.20;87.60;;;;;;4977107;28;20470;-79
2022/10/12 06:55:10;;;;;;;2.47;2.37;;;15.30;87.20;;;;;;4977046;28;20485;-79
2022/10/12 06:57:37;;;;;;;2.50;2.40;;;15.40;86.80;;;;;;4977027;28;20528;-79
2022/10/12 07:00:04;;;;;;;2.20;2.10;;;15.30;86.90;;;;;;4978387;28;20485;-79
2022/10/12 07:02:33;;;;;;;2.57;2.47;;;15.40;86.90;;;;;;4978015;28;20489;-79
2022/10/12 07:05:00;;;;;;;2.00;1.90;;;15.50;86.90;;;;;;4978059;28;20446;-79
2022/10/12 07:07:29;;;;;;;1.93;1.83;;;15.60;86.70;;;;;;4977566;28;20454;-79
2022/10/12 07:09:56;;;;;;;2.13;2.03;;;15.50;86.70;;;;;;4977779;28;20454;-80
2022/10/12 07:12:23;;;;;;;2.10;2.00;;;15.60;86.70;;;;;;4976707;28;20470;-79
2022/10/12 07:14:50;;;;;;;2.40;2.30;;;15.70;86.40;;;;;;4977005;28;20529;-79
2022/10/12 07:17:16;;;;;;;2.37;2.27;;;15.40;86.50;;;;;;4977258;28;20454;-79
2022/10/12 07:19:44;;;;;;;2.60;2.50;;;15.10;87.50;;;;;;4977263;28;20513;-79
2022/10/12 07:22:11;;;;;;;2.47;2.37;;;15.20;87.90;;;;;;4977219;28;20478;-79
2022/10/12 07:24:38;;;;;;;2.50;2.40;;;15.30;87.80;;;;;;4976528;28;20458;-79
2022/10/12 07:27:08;;;;;;;2.30;2.20;;;15.50;87.40;;;;;;4977576;28;20513;-80
2022/10/12 07:29:36;;;;;;;2.20;2.10;;;15.50;87.20;;;;;;4977344;28;20592;-79
2022/10/12 07:32:03;;;;;;;2.30;2.20;;;15.40;87.00;;;;;;4985927;28;20470;-79
2022/10/12 07:34:30;;;;;;;2.30;2.20;;;15.40;87.70;;;;;;4979963;28;20454;-79
2022/10/12 07:36:58;;;;;;;2.73;2.63;;;15.30;87.30;;;;;;4980530;28;20446;-79
2022/10/12 07:39:24;;;;;;;2.47;2.37;;;15.40;88.10;;;;;;4979829;28;20453;-79
2022/10/12 07:41:52;;;;;;;2.30;2.20;;;15.60;87.40;;;;;;4979905;28;20482;-79
2022/10/12 07:44:19;;;;;;;2.47;2.37;;;15.70;87.10;;;;;;4979459;28;20450;-78
2022/10/12 07:46:46;;;;;;;2.30;2.20;;;15.70;86.70;;;;;;4979677;28;20461;-79
2022/10/12 07:49:14;;;;;;;2.20;2.10;;;15.80;86.70;;;;;;4979684;28;20486;-79
2022/10/12 07:51:42;;;;;;;2.80;2.70;;;15.90;86.30;;;;;;4979334;28;20470;-79
2022/10/12 07:54:10;;;;;;;2.23;2.13;;;15.70;86.40;;;;;;4979636;28;20435;-79
2022/10/12 07:56:37;;;;;;;2.37;2.27;;;15.60;86.70;;;;;;4979073;28;20466;-79
2022/10/12 07:59:03;;;;;;;2.17;2.07;;;15.70;86.90;;;;;;4979103;28;20457;-79
2022/10/12 08:01:31;;;;;;;2.37;2.27;;;15.60;86.70;;;;;;4979620;28;20911;-79
2022/10/12 08:03:58;;;;;;;2.60;2.50;;;15.60;87.50;;;;;;4979775;28;20441;-79
2022/10/12 08:06:27;;;;;;;2.60;2.50;;;15.60;87.20;;;;;;4979653;28;20454;-79
2022/10/12 08:08:54;;;;;;;2.20;2.10;;;15.60;87.20;;;;;;4978415;28;20485;-79
2022/10/12 08:11:22;;;;;;;2.20;2.10;;;15.70;87.10;;;;;;4976523;28;20473;-79
2022/10/12 08:13:49;;;;;;;2.43;2.33;;;15.80;87.00;;;;;;4977355;28;20446;-79
2022/10/12 08:16:18;;;;;;;2.33;2.23;;;15.80;86.30;;;;;;4977382;28;20458;-79
2022/10/12 08:18:44;;;;;;;2.00;1.90;;;15.70;86.40;;;;;;4977236;28;20446;-79
2022/10/12 08:21:13;;;;;;;2.33;2.23;;;15.60;87.10;;;;;;4978023;28;20470;-79
2022/10/12 08:23:40;;;;;;;2.50;2.37;;;15.70;87.00;;;;;;4977102;28;20477;-79
2022/10/12 08:26:08;;;;;;;2.13;2.03;;;15.60;86.40;;;;;;4977423;28;20457;-79
2022/10/12 08:28:36;;;;;;;1.97;1.87;;;15.70;86.90;;;;;;4977489;28;21006;-79
2022/10/12 08:31:07;;;;;;;2.20;2.10;;;15.90;86.50;;;;;;4977619;28;20521;-79
2022/10/12 08:33:33;;;;;;;2.47;2.37;;;15.80;85.60;;;;;;4977849;28;20838;-79
2022/10/12 08:36:02;;;;;;;2.63;2.53;;;15.70;86.30;;;;;;4979517;28;20450;-79
2022/10/12 08:38:30;;;;;;;2.50;2.40;;;15.50;87.20;;;;;;4981182;28;20504;-79
2022/10/12 08:41:04;;;;;;;2.23;2.13;;;15.50;87.10;;;;;;4980737;28;20823;-79
2022/10/12 08:43:44;;;;;;;2.50;2.40;;;15.40;88.00;;;;;;4981633;28;20434;-79
2022/10/12 08:46:11;;;;;;;2.50;2.40;;;15.50;88.10;;;;;;4981584;28;20431;-79
2022/10/12 08:48:45;;;;;;;2.60;2.50;;;15.70;87.30;;;;;;4981440;28;20485;-79
2022/10/12 08:51:17;;;;;;;2.23;2.10;;;15.80;86.60;;;;;;4982803;28;20470;-79
2022/10/12 08:53:49;;;;;;;2.63;2.53;;;15.70;87.20;;;;;;4980976;28;20431;-79
2022/10/12 08:56:17;;;;;;;2.10;2.00;;;15.50;87.00;;;;;;4978178;28;20434;-79
2022/10/12 08:58:46;;;;;;;2.20;2.10;;;15.50;88.30;;;;;;4978037;28;20481;-79
2022/10/12 09:01:21;;;;;;;2.50;2.40;;;15.80;87.10;;;;;;4978037;28;20495;-80
2022/10/12 09:04:03;;;;;;;2.20;2.10;;;15.80;86.80;;;;;;4978033;28;20788;-79
2022/10/12 09:06:34;;;;;;;1.90;1.80;;;15.70;86.80;;;;;;4977537;28;20906;-79
2022/10/12 09:09:13;;;;;;;2.20;2.10;;;15.50;87.40;;;;;;4977990;28;20517;-79
2022/10/12 09:11:53;;;;;;;2.50;2.30;;;15.40;88.60;;;;;;4977741;28;20877;-79
2022/10/12 09:14:25;;;;;;;2.00;1.90;;;15.50;88.40;;;;;;4977977;28;20439;-79
2022/10/12 09:16:55;;;;;;;1.83;1.73;;;15.70;87.40;;;;;;4978529;28;20431;-79
2022/10/12 09:19:26;;;;;;;2.40;2.30;;;15.70;86.70;;;;;;4977362;28;20446;-79
2022/10/12 09:21:52;;;;;;;2.10;2.00;;;15.80;85.40;;;;;;4977633;28;20470;-79
2022/10/12 09:24:22;;;;;;;1.90;1.80;;;15.70;85.90;;;;;;4979270;28;20461;-79
2022/10/12 09:26:51;;;;;;;2.13;2.03;;;15.50;86.80;;;;;;4978910;28;20485;-79
2022/10/12 09:29:23;;;;;;;2.30;2.20;;;15.60;87.30;;;;;;4980766;28;20482;-79
2022/10/12 09:32:19;;;;;;;1.97;1.87;;;15.50;86.40;;;;;;4980831;28;20474;-76
2022/10/12 09:34:47;;;;;;;1.87;1.77;;;15.40;87.50;;;;;;4970005;28;20463;-78
2022/10/12 09:37:20;;;;;;;1.60;1.50;;;15.80;85.50;;;;;;4983823;28;20453;-79
2022/10/12 09:39:47;;;;;;;2.10;2.00;;;15.60;86.00;;;;;;4984061;28;20458;-79
2022/10/12 09:42:14;;;;;;;1.87;1.77;;;15.60;85.70;;;;;;4983203;28;20458;-79
2022/10/12 09:44:46;;;;;;;2.00;1.90;;;15.70;85.80;;;;;;4981345;28;20450;-79
2022/10/12 09:47:27;;;;;;;2.13;2.03;;;15.90;84.90;;;;;;4982361;28;20435;-78
2022/10/12 09:49:57;;;;;;;1.60;1.50;;;16.00;85.00;;;;;;4983999;28;20512;-79
2022/10/12 09:52:28;;;;;;;2.37;2.27;;;16.10;84.80;;;;;;4984903;28;20470;-78
2022/10/12 09:54:59;;;;;;;2.43;2.23;;;16.40;84.10;;;;;;4982537;28;20434;-79
2022/10/12 09:57:28;;;;;;;1.50;1.50;;;16.50;83.60;;;;;;4981097;28;20445;-79
2022/10/12 09:59:57;;;;;;;1.80;1.70;;;16.20;83.90;;;;;;4987132;28;20560;-79
2022/10/12 10:02:25;;;;;;;2.07;1.97;;;16.10;83.90;;;;;;4984659;28;20482;-79
2022/10/12 10:04:53;;;;;;;1.90;1.80;;;16.00;84.10;;;;;;4980956;28;20465;-79
2022/10/12 10:07:26;;;;;;;2.13;2.03;;;16.00;84.50;;;;;;4979366;28;20458;-79
2022/10/12 10:10:16;;;;;;;1.67;1.60;;;15.90;84.60;;;;;;4978762;28;20837;-78
2022/10/12 10:12:48;;;;;;;1.80;1.70;;;15.90;84.80;;;;;;4980958;28;20476;-79
2022/10/12 10:15:28;;;;;;;2.03;1.93;;;15.90;84.50;;;;;;4983778;28;20466;-79
2022/10/12 10:17:59;;;;;;;1.73;1.63;;;16.00;84.30;;;;;;4982656;28;20434;-79
2022/10/12 10:20:33;;;;;;;1.60;1.60;;;16.30;83.10;;;;;;4982867;28;20533;-79
2022/10/12 10:23:02;;;;;;;1.90;1.80;;;16.40;82.80;;;;;;4983205;28;20433;-78
2022/10/12 10:25:29;;;;;;;2.23;2.13;;;16.30;82.60;;;;;;4976972;28;20528;-78
2022/10/12 10:28:21;;;;;;;1.80;1.70;;;16.30;83.20;;;;;;4979929;28;20481;-79
2022/10/12 10:30:59;;;;;;;1.90;1.80;;;16.50;81.60;;;;;;4983546;28;20489;-79
2022/10/12 10:33:26;;;;;;;2.13;2.03;;;16.40;82.30;;;;;;4980719;28;20470;-80
2022/10/12 10:35:59;;;;;;;1.73;1.63;;;16.40;81.90;;;;;;4985168;28;20450;-79
2022/10/12 10:38:26;;;;;;;2.00;1.90;;;16.60;81.80;;;;;;4983651;28;20812;-79
2022/10/12 10:40:56;;;;;;;1.80;1.70;;;16.70;81.70;;;;;;4978932;28;20469;-78
2022/10/12 10:43:27;;;;;;;1.20;1.20;;;16.70;81.00;;;;;;4975742;28;20461;-78
2022/10/12 10:45:58;;;;;;;1.90;1.80;;;16.60;81.50;;;;;;4975602;28;20481;-78
2022/10/12 10:48:29;;;;;;;1.50;1.50;;;16.50;81.90;;;;;;4975557;28;20849;-79
2022/10/12 10:51:00;;;;;;;1.90;1.80;;;16.60;81.00;;;;;;4981390;28;20472;-80
2022/10/12 10:53:30;;;;;;;1.70;1.60;;;16.70;81.40;;;;;;4981333;28;20777;-80
2022/10/12 10:56:02;;;;;;;1.30;1.20;;;16.80;80.80;;;;;;4979997;28;20431;-78
2022/10/12 10:58:34;;;;;;;1.20;1.20;;;17.00;79.50;;;;;;4975280;28;20445;-77
2022/10/12 11:01:11;;;;;;;1.70;1.60;;;16.80;79.90;;;;;;4979220;28;20474;-79
2022/10/12 11:03:48;;;;;;;1.20;1.20;;;16.60;80.30;;;;;;4977040;28;20430;-78
2022/10/12 11:06:23;;;;;;;1.20;1.20;;;16.70;81.00;;;;;;4976016;28;20469;-78
2022/10/12 11:08:55;;;;;;;1.50;1.40;;;16.60;81.70;;;;;;4976417;28;20462;-79
2022/10/12 11:11:25;;;;;;;1.43;1.37;;;16.70;81.20;;;;;;4980241;28;20477;-79
2022/10/12 11:13:55;;;;;;;1.43;1.43;;;16.80;80.90;;;;;;4976156;28;20461;-79
2022/10/12 11:16:30;;;;;;;1.70;1.60;;;16.50;80.90;;;;;;4980205;28;20439;-79
2022/10/12 11:18:59;;;;;;;1.53;1.50;;;16.40;82.20;;;;;;4976627;28;20433;-79
2022/10/12 11:21:32;;;;;;;1.70;1.60;;;16.50;81.60;;;;;;4980670;28;20470;-79
2022/10/12 11:24:05;;;;;;;1.63;1.40;;;16.70;81.60;;;;;;4985236;28;20446;-78
2022/10/12 11:26:36;;;;;;;1.67;1.50;;;16.80;81.60;;;;;;4988519;28;20473;-79
2022/10/12 11:29:04;;;;;;;1.80;1.70;;;16.80;79.90;;;;;;4989088;28;20557;-78
2022/10/12 11:31:38;;;;;;;1.30;1.20;;;16.90;79.40;;;;;;4989470;28;20659;-79
2022/10/12 11:34:07;;;;;;;1.20;1.20;;;17.10;79.10;;;;;;4989391;28;20426;-78
2022/10/12 11:36:38;;;;;;;1.80;1.70;;;17.20;78.20;;;;;;4989339;28;20457;-80
2022/10/12 11:39:09;;;;;;;1.67;1.43;;;17.10;78.50;;;;;;4989540;28;20435;-79
2022/10/12 11:41:44;;;;;;;1.37;1.37;;;17.00;79.50;;;;;;4989370;28;20482;-79
2022/10/12 11:44:16;;;;;;;1.07;1.07;;;17.00;79.10;;;;;;4988720;28;20438;-79
2022/10/12 11:46:49;;;;;;;1.50;1.10;;;16.70;80.10;;;;;;4988193;28;20451;-78
2022/10/12 11:49:25;;;;;;;1.43;1.33;;;16.80;80.50;;;;;;4988057;28;20561;-78
2022/10/12 11:51:56;;;;;;;1.60;1.50;;;16.80;80.60;;;;;;4985597;28;20481;-78
2022/10/12 11:54:30;;;;;;;1.30;1.20;;;16.90;80.90;;;;;;4985655;28;20441;-78
2022/10/12 11:57:00;;;;;;;1.20;1.20;;;16.90;79.50;;;;;;4986414;28;20442;-79
2022/10/12 11:59:32;;;;;;;1.17;1.17;;;16.80;80.00;;;;;;4986106;28;20447;-78
2022/10/12 12:02:10;;;;;;;1.50;1.40;;;16.80;79.70;;;;;;4987178;28;20493;-80
2022/10/12 12:04:41;;;;;;;1.20;1.10;;;16.60;80.60;;;;;;4988496;28;20435;-78
2022/10/12 12:07:39;;;;;;;1.57;1.47;;;16.40;81.60;;;;;;4988122;28;20446;-79
2022/10/12 12:10:40;;;;;;;1.23;1.20;;;16.40;81.40;;;;;;4988459;28;20482;-78
2022/10/12 12:13:11;;;;;;;1.33;1.23;;;16.60;80.70;;;;;;4992054;28;20458;-81
2022/10/12 12:15:39;;;;;;;1.40;1.30;;;16.90;80.50;;;;;;4993943;28;20446;-84
2022/10/12 12:18:13;;;;;;;1.40;1.30;;;16.60;80.40;;;;;;4992203;28;20442;-80
2022/10/12 12:21:04;;;;;;;1.37;1.27;;;16.60;81.10;;;;;;4992713;28;20434;-81
2022/10/12 12:23:37;;;;;;;1.30;1.20;;;17.00;80.20;;;;;;4992872;28;20454;-79
2022/10/12 12:26:12;;;;;;;1.30;1.20;;;16.90;79.50;;;;;;4992101;28;20494;-80
2022/10/12 12:28:42;;;;;;;1.90;1.30;;;16.70;80.40;;;;;;4991343;28;20453;-78
2022/10/12 12:31:14;;;;;;;1.07;1.07;;;16.60;80.60;;;;;;4988268;28;20486;-76
2022/10/12 12:33:45;;;;;;;1.30;1.30;;;16.30;81.00;;;;;;4987124;28;20449;-75
2022/10/12 12:36:15;;;;;;;1.40;1.30;;;16.40;81.10;;;;;;4986979;28;20969;-77
2022/10/12 12:38:49;;;;;;;1.10;1.10;;;16.80;80.50;;;;;;4987887;28;20431;-76
2022/10/12 12:41:18;;;;;;;1.23;1.20;;;17.00;80.20;;;;;;4985848;28;20843;-76
2022/10/12 12:43:55;;;;;;;1.20;1.10;;;17.30;79.80;;;;;;4985553;28;20434;-76
2022/10/12 12:46:24;;;;;;;1.47;1.23;;;17.20;78.50;;;;;;4986659;28;20434;-76
2022/10/12 12:49:01;;;;;;;1.40;1.30;;;17.30;78.90;;;;;;4986399;28;20462;-76
2022/10/12 12:51:38;;;;;;;1.10;1.10;;;17.40;78.80;;;;;;4985635;28;20540;-76
2022/10/12 12:54:17;;;;;;;1.40;1.30;;;17.00;78.90;;;;;;4986916;28;20440;-78
2022/10/12 12:57:20;;;;;;;0.90;0.90;;;16.90;79.50;;;;;;4988586;28;20415;-78
2022/10/12 13:00:10;;;;;;;1.07;1.07;;;16.90;79.70;;;;;;4979633;28;20527;-77
2022/10/12 13:02:58;;;;;;;1.00;1.00;;;16.60;79.40;;;;;;4988094;28;20580;-78
2022/10/12 13:06:24;;;;;;;0.93;0.93;;;16.50;80.10;;;;;;4988809;28;20439;-78
2022/10/12 13:09:16;;;;;;;0.80;0.80;;;16.70;80.40;;;;;;4989407;28;20455;-77
2022/10/12 13:12:02;;;;;;;0.93;0.93;;;17.10;78.20;;;;;;4988848;28;20471;-78
2022/10/12 13:14:48;;;;;;;0.97;0.90;;;17.20;78.20;;;;;;4987769;28;20464;-78
2022/10/12 13:17:31;;;;;;;1.10;0.93;;;17.20;78.30;;;;;;4988698;28;20446;-77
2022/10/12 13:19:59;;;;;;;0.80;0.80;;;16.90;79.40;;;;;;4987711;28;20510;-77
2022/10/12 13:22:31;;;;;;;0.83;0.83;;;16.60;80.30;;;;;;4987841;28;20990;-78
2022/10/12 13:25:01;;;;;;;1.00;1.00;;;16.90;79.70;;;;;;4988337;28;20446;-77
2022/10/12 13:27:34;;;;;;;1.20;1.10;;;17.10;78.60;;;;;;4988475;28;20473;-77
2022/10/12 13:30:06;;;;;;;0.77;0.77;;;16.80;79.10;;;;;;4988262;28;20996;-78
2022/10/12 13:32:42;;;;;;;0.83;0.83;;;16.80;80.00;;;;;;4988760;28;20446;-80
2022/10/12 13:35:14;;;;;;;1.00;0.90;;;16.90;79.30;;;;;;4989131;28;20501;-78
2022/10/12 13:37:42;;;;;;;1.20;1.10;;;17.20;79.20;;;;;;4988461;28;20445;-77
2022/10/12 13:40:27;;;;;;;0.83;0.83;;;18.70;76.00;;;;;;4988334;28;20449;-79
2022/10/12 13:42:54;;;;;;;0.90;0.90;;;20.90;69.20;;;;;;4987236;28;20435;-77
2022/10/12 13:45:21;;;;;;;0.90;0.80;;;22.30;65.00;;;;;;4989571;28;20822;-77
2022/10/12 13:47:47;;;;;;;0.90;0.90;;;22.60;62.50;;;;;;4988568;28;20446;-78
2022/10/12 13:50:17;;;;;;;1.00;0.90;;;21.90;63.70;;;;;;4978916;28;20490;-77
2022/10/12 13:52:52;;;;;;;1.63;0.90;;;21.70;65.20;;;;;;4976288;28;20498;-78
2022/10/12 13:55:27;;;;;;;1.20;0.80;;;21.60;65.90;;;;;;4976616;28;20461;-78
2022/10/12 13:57:54;;;;;;;0.97;0.90;;;21.20;66.10;;;;;;4976916;28;20442;-78
2022/10/12 14:00:24;;;;;;;0.93;0.80;;;20.70;67.10;;;;;;4976265;28;20442;-78
2022/10/12 14:02:55;;;;;;;0.90;0.90;;;20.10;69.20;;;;;;4976343;28;20458;-77
2022/10/12 14:05:24;;;;;;;0.80;0.80;;;20.60;68.80;;;;;;4976539;28;20454;-78
2022/10/12 14:07:56;;;;;;;1.20;1.10;;;22.10;66.20;;;;;;4976812;28;20458;-79
2022/10/12 14:10:26;;;;;;;0.90;0.90;;;24.60;59.90;;;;;;4987689;28;20477;-78
2022/10/12 14:12:54;;;;;;;0.70;0.70;;;26.70;54.00;;;;;;4985686;28;20809;-78
2022/10/12 14:15:23;;;;;;;0.87;0.87;;;28.40;49.80;;;;;;4976808;28;20465;-79
2022/10/12 14:17:51;;;;;;;1.17;0.80;;;28.70;49.20;;;;;;4977617;28;20974;-79
2022/10/12 14:20:27;;;;;;;0.90;0.80;;;28.70;50.10;;;;;;4977973;28;20455;-78
2022/10/12 14:22:57;;;;;;;1.00;0.80;;;29.80;48.60;;;;;;4977315;28;20801;-79
2022/10/12 14:25:26;;;;;;;0.97;0.87;;;29.50;48.40;;;;;;4978942;28;20505;-79
2022/10/12 14:27:55;;;;;;;0.97;0.87;;;29.40;48.10;;;;;;4985844;28;20455;-79
2022/10/12 14:30:25;;;;;;;0.77;0.77;;;29.70;47.50;;;;;;4986124;28;20492;-77
2022/10/12 14:32:54;;;;;;;1.00;1.00;;;29.50;47.80;;;;;;4986285;28;20462;-79
2022/10/12 14:35:27;;;;;;;0.73;0.73;;;28.80;48.60;;;;;;4987734;28;20523;-77
2022/10/12 14:37:56;;;;;;;1.20;1.10;;;28.80;48.90;;;;;;4987381;28;20514;-81
2022/10/12 14:40:36;;;;;;;0.90;0.90;;;28.30;49.30;;;;;;4990056;28;20450;-78
2022/10/12 14:43:06;;;;;;;0.80;0.80;;;28.90;48.60;;;;;;4987727;28;20478;-79
2022/10/12 14:45:34;;;;;;;1.00;1.00;;;29.20;47.80;;;;;;4988217;28;20445;-80
2022/10/12 14:48:03;;;;;;;0.80;0.80;;;29.80;47.00;;;;;;4989846;28;20486;-78
2022/10/12 14:50:32;;;;;;;0.80;0.80;;;30.00;47.00;;;;;;4987606;28;20558;-79
2022/10/12 14:53:03;;;;;;;0.80;0.80;;;29.90;46.70;;;;;;4987988;28;20461;-77
2022/10/12 14:55:33;;;;;;;0.97;0.80;;;29.00;47.80;;;;;;4989301;28;20454;-79
2022/10/12 14:58:00;;;;;;;0.90;0.90;;;28.50;48.60;;;;;;4990645;28;20536;-78
2022/10/12 15:00:29;;;;;;;0.80;0.80;;;28.70;49.10;;;;;;4990108;28;20435;-80
2022/10/12 15:02:57;;;;;;;0.90;0.90;;;29.40;48.20;;;;;;4987354;28;20485;-78
2022/10/12 15:05:25;;;;;;;1.10;1.00;;;29.10;47.90;;;;;;4986245;28;20446;-77
2022/10/12 15:07:52;;;;;;;0.80;0.80;;;27.40;50.40;;;;;;4984859;28;20481;-77
2022/10/12 15:10:22;;;;;;;0.90;0.90;;;25.60;53.90;;;;;;4975495;28;20485;-78
2022/10/12 15:12:50;;;;;;;1.00;0.90;;;24.40;56.30;;;;;;4976818;28;20454;-78
2022/10/12 15:15:26;;;;;;;0.80;0.80;;;23.60;58.50;;;;;;4980292;28;20450;-79
2022/10/12 15:17:52;;;;;;;0.70;0.70;;;22.80;60.20;;;;;;4978399;28;20493;-79
2022/10/12 15:20:20;;;;;;;1.00;1.00;;;22.10;62.10;;;;;;4980243;28;20453;-79
2022/10/12 15:22:46;;;;;;;0.80;0.80;;;21.60;63.40;;;;;;4976369;28;20977;-78
2022/10/12 15:25:19;;;;;;;0.87;0.83;;;21.40;64.20;;;;;;4975839;28;20485;-78
2022/10/12 15:27:47;;;;;;;0.90;0.90;;;20.70;66.30;;;;;;4976166;28;20441;-79
2022/10/12 15:30:15;;;;;;;0.83;0.83;;;20.50;66.90;;;;;;4981071;28;20457;-80
2022/10/12 15:32:42;;;;;;;0.93;0.90;;;19.80;68.90;;;;;;4982009;28;20474;-78
2022/10/12 15:35:19;;;;;;;0.80;0.80;;;19.60;69.40;;;;;;4978334;28;20851;-78
2022/10/12 15:37:46;;;;;;;0.90;0.90;;;19.30;70.40;;;;;;4978053;28;20430;-79
2022/10/12 15:40:13;;;;;;;1.37;1.17;;;18.90;71.40;;;;;;4979090;28;20450;-79
2022/10/12 15:42:41;;;;;;;1.00;1.00;;;18.60;72.40;;;;;;4977819;28;20481;-78
2022/10/12 15:45:17;;;;;;;1.10;1.00;;;18.70;72.40;;;;;;4978607;28;20494;-79
2022/10/12 15:47:45;;;;;;;0.90;0.90;;;18.70;72.70;;;;;;4979975;28;20528;-79
2022/10/12 15:50:12;;;;;;;0.80;0.80;;;18.60;72.90;;;;;;4981412;28;20481;-78
2022/10/12 15:52:38;;;;;;;1.00;1.00;;;18.70;72.60;;;;;;4983612;28;20462;-78
2022/10/12 15:55:14;;;;;;;1.10;1.00;;;18.70;73.20;;;;;;4983221;28;20457;-78
2022/10/12 15:57:40;;;;;;;1.30;1.20;;;18.80;73.20;;;;;;4985386;28;20430;-78
2022/10/12 16:00:08;;;;;;;1.20;1.10;;;18.90;73.50;;;;;;4984160;28;20453;-78
2022/10/12 16:02:36;;;;;;;1.30;1.13;;;18.90;73.60;;;;;;4978294;28;20553;-78
2022/10/12 16:05:03;;;;;;;1.30;1.03;;;18.90;73.70;;;;;;4978268;28;20497;-77